Hauptseite
METAR-TAF:

METAR-TAF

Flughäfen :

Plzeň, Tschechien

Breite: 49-40-31N, Länge: 13-16-29E, Höhe: 362 m

Beobachtung

Neuester Wetterbericht von vor 25 Minuten, um 19:00 UTC
Wind 6 kt aus West/Südwest
Temperatur 12°C
Luftfeuchtigkeit 71%
Luftdruck 1013 hPa
Sichtweite 10 km oder mehr
Geschlossene Wolkendecke in der Höhe von 6700 ft

METAR: LKLN 181900Z AUTO 24006KT 9999 OVC067 12/07 Q1013

Zeit: 21:25 (19:25 UTC)


TAF: fehlend

Wetterbeobachtungen und Prognosen von mehr als 4000 Flughäfen (METAR und TAF Bericht).

Die verfügbaren Stationen werden durch gelbe und rote Markierungen auf der Karte dargestellt.

Führen Sie die Maus auf sie, um den Namen der Station zu sehen.

Darauf klicken, um die Beobachtung von Wetterbeobachtungen und Prognosen zu sehen.

Um die Karte zu ändern : klicken Sie auf den grünen Tasten mit einem schwarzen Kreuz Zum Vergrößern, auf den grünen Button mit einem Gedankenstrich zu verkleinern, oder auf die grünen Pfeile für benachbarte Karten.


METAR-TAF: